sensor_id;sensor_type;location;lat;lon;timestamp;temperature;humidity
4183;DHT22;2105;52.300;9.182;2022-09-09T00:02:01;16.30;99.90
4183;DHT22;2105;52.300;9.182;2022-09-09T00:04:31;16.20;99.90
4183;DHT22;2105;52.300;9.182;2022-09-09T00:07:04;16.20;99.90
4183;DHT22;2105;52.300;9.182;2022-09-09T00:09:39;16.20;99.90
4183;DHT22;2105;52.300;9.182;2022-09-09T00:12:11;16.30;99.90
4183;DHT22;2105;52.300;9.182;2022-09-09T00:14:47;16.30;99.90
4183;DHT22;2105;52.300;9.182;2022-09-09T00:17:25;16.30;99.90
4183;DHT22;2105;52.300;9.182;2022-09-09T00:20:02;16.30;99.90
4183;DHT22;2105;52.300;9.182;2022-09-09T00:22:32;16.20;99.90
4183;DHT22;2105;52.300;9.182;2022-09-09T00:25:08;16.20;99.90
4183;DHT22;2105;52.300;9.182;2022-09-09T00:27:41;16.20;99.90
4183;DHT22;2105;52.300;9.182;2022-09-09T00:30:17;16.20;1.00
4183;DHT22;2105;52.300;9.182;2022-09-09T00:32:48;16.20;1.00
4183;DHT22;2105;52.300;9.182;2022-09-09T00:35:22;16.30;99.90
4183;DHT22;2105;52.300;9.182;2022-09-09T00:37:53;16.30;99.90
4183;DHT22;2105;52.300;9.182;2022-09-09T00:40:26;16.30;99.90
4183;DHT22;2105;52.300;9.182;2022-09-09T00:43:02;16.30;99.90
4183;DHT22;2105;52.300;9.182;2022-09-09T00:45:47;16.40;99.90
4183;DHT22;2105;52.300;9.182;2022-09-09T00:48:22;16.40;99.90
4183;DHT22;2105;52.300;9.182;2022-09-09T00:50:55;16.40;99.90
4183;DHT22;2105;52.300;9.182;2022-09-09T00:53:31;16.40;99.90
4183;DHT22;2105;52.300;9.182;2022-09-09T00:56:11;16.40;99.90
4183;DHT22;2105;52.300;9.182;2022-09-09T00:58:38;16.40;99.90
4183;DHT22;2105;52.300;9.182;2022-09-09T01:01:09;16.40;99.90
4183;DHT22;2105;52.300;9.182;2022-09-09T01:03:40;16.40;99.90
4183;DHT22;2105;52.300;9.182;2022-09-09T01:06:16;16.40;99.90
4183;DHT22;2105;52.300;9.182;2022-09-09T01:09:10;16.40;99.90
4183;DHT22;2105;52.300;9.182;2022-09-09T01:11:52;16.50;99.90
4183;DHT22;2105;52.300;9.182;2022-09-09T01:14:35;16.50;99.90
4183;DHT22;2105;52.300;9.182;2022-09-09T01:17:12;16.50;99.90
4183;DHT22;2105;52.300;9.182;2022-09-09T01:19:49;16.50;99.90
4183;DHT22;2105;52.300;9.182;2022-09-09T01:22:25;16.50;99.90
4183;DHT22;2105;52.300;9.182;2022-09-09T01:25:09;16.40;99.90
4183;DHT22;2105;52.300;9.182;2022-09-09T01:27:42;16.40;99.90
4183;DHT22;2105;52.300;9.182;2022-09-09T01:30:10;16.40;99.90
4183;DHT22;2105;52.300;9.182;2022-09-09T01:32:40;16.50;99.90
4183;DHT22;2105;52.300;9.182;2022-09-09T01:35:11;16.40;99.90
4183;DHT22;2105;52.300;9.182;2022-09-09T01:37:38;16.40;99.90
4183;DHT22;2105;52.300;9.182;2022-09-09T01:40:06;16.40;99.90
4183;DHT22;2105;52.300;9.182;2022-09-09T01:42:33;16.40;99.90
4183;DHT22;2105;52.300;9.182;2022-09-09T01:45:02;16.40;99.90
4183;DHT22;2105;52.300;9.182;2022-09-09T01:47:29;16.50;99.90
4183;DHT22;2105;52.300;9.182;2022-09-09T01:49:56;16.50;99.90
4183;DHT22;2105;52.300;9.182;2022-09-09T01:52:23;16.50;99.90
4183;DHT22;2105;52.300;9.182;2022-09-09T01:54:49;16.40;99.90
4183;DHT22;2105;52.300;9.182;2022-09-09T01:57:20;16.40;1.00
4183;DHT22;2105;52.300;9.182;2022-09-09T01:59:54;16.30;1.00
4183;DHT22;2105;52.300;9.182;2022-09-09T02:02:29;16.30;1.00
4183;DHT22;2105;52.300;9.182;2022-09-09T02:05:03;16.40;1.00
4183;DHT22;2105;52.300;9.182;2022-09-09T02:07:39;16.40;1.00
4183;DHT22;2105;52.300;9.182;2022-09-09T02:10:11;16.40;1.00
4183;DHT22;2105;52.300;9.182;2022-09-09T02:12:41;16.40;1.00
4183;DHT22;2105;52.300;9.182;2022-09-09T02:15:16;16.40;1.00
4183;DHT22;2105;52.300;9.182;2022-09-09T02:17:46;16.30;1.00
4183;DHT22;2105;52.300;9.182;2022-09-09T02:20:16;16.30;1.00
4183;DHT22;2105;52.300;9.182;2022-09-09T02:22:46;16.20;1.00
4183;DHT22;2105;52.300;9.182;2022-09-09T02:25:18;16.20;1.00
4183;DHT22;2105;52.300;9.182;2022-09-09T02:27:47;16.20;1.00
4183;DHT22;2105;52.300;9.182;2022-09-09T02:30:15;16.20;99.90
4183;DHT22;2105;52.300;9.182;2022-09-09T02:32:44;16.20;99.90
4183;DHT22;2105;52.300;9.182;2022-09-09T02:35:14;16.20;99.90
4183;DHT22;2105;52.300;9.182;2022-09-09T02:37:43;16.20;99.90
4183;DHT22;2105;52.300;9.182;2022-09-09T02:40:13;16.20;1.00
4183;DHT22;2105;52.300;9.182;2022-09-09T02:42:42;16.20;1.00
4183;DHT22;2105;52.300;9.182;2022-09-09T02:45:12;16.20;1.00
4183;DHT22;2105;52.300;9.182;2022-09-09T02:47:46;16.20;1.00
4183;DHT22;2105;52.300;9.182;2022-09-09T02:50:17;16.30;1.00
4183;DHT22;2105;52.300;9.182;2022-09-09T02:52:54;16.30;1.00
4183;DHT22;2105;52.300;9.182;2022-09-09T02:55:32;16.30;1.00
4183;DHT22;2105;52.300;9.182;2022-09-09T02:58:04;16.30;1.00
4183;DHT22;2105;52.300;9.182;2022-09-09T03:00:33;16.30;1.00
4183;DHT22;2105;52.300;9.182;2022-09-09T03:03:03;16.20;1.00
4183;DHT22;2105;52.300;9.182;2022-09-09T03:05:30;16.20;1.00
4183;DHT22;2105;52.300;9.182;2022-09-09T03:07:57;16.30;1.00
4183;DHT22;2105;52.300;9.182;2022-09-09T03:10:24;16.30;99.90
4183;DHT22;2105;52.300;9.182;2022-09-09T03:12:51;16.30;99.90
4183;DHT22;2105;52.300;9.182;2022-09-09T03:15:17;16.30;99.90
4183;DHT22;2105;52.300;9.182;2022-09-09T03:17:44;16.30;99.90
4183;DHT22;2105;52.300;9.182;2022-09-09T03:20:13;16.30;99.90
4183;DHT22;2105;52.300;9.182;2022-09-09T03:22:40;16.30;85.00
4183;DHT22;2105;52.300;9.182;2022-09-09T03:25:07;16.40;1.00
4183;DHT22;2105;52.300;9.182;2022-09-09T03:27:34;16.40;1.00
4183;DHT22;2105;52.300;9.182;2022-09-09T03:30:01;16.40;1.00
4183;DHT22;2105;52.300;9.182;2022-09-09T03:32:29;16.40;1.00
4183;DHT22;2105;52.300;9.182;2022-09-09T03:34:56;16.40;1.00
4183;DHT22;2105;52.300;9.182;2022-09-09T03:37:25;16.40;19.10
4183;DHT22;2105;52.300;9.182;2022-09-09T03:39:51;16.40;90.30
4183;DHT22;2105;52.300;9.182;2022-09-09T03:42:20;16.40;96.30
4183;DHT22;2105;52.300;9.182;2022-09-09T03:44:47;16.40;99.90
4183;DHT22;2105;52.300;9.182;2022-09-09T03:47:16;16.30;99.90
4183;DHT22;2105;52.300;9.182;2022-09-09T03:49:42;16.30;99.90
4183;DHT22;2105;52.300;9.182;2022-09-09T03:52:09;16.30;99.90
4183;DHT22;2105;52.300;9.182;2022-09-09T03:54:37;16.30;99.90
4183;DHT22;2105;52.300;9.182;2022-09-09T03:57:04;16.20;1.00
4183;DHT22;2105;52.300;9.182;2022-09-09T03:59:31;16.10;1.00
4183;DHT22;2105;52.300;9.182;2022-09-09T04:01:58;16.10;1.00
4183;DHT22;2105;52.300;9.182;2022-09-09T04:04:25;16.10;1.00
4183;DHT22;2105;52.300;9.182;2022-09-09T04:06:52;16.10;1.00
4183;DHT22;2105;52.300;9.182;2022-09-09T04:09:19;16.10;1.00
4183;DHT22;2105;52.300;9.182;2022-09-09T04:11:47;16.10;1.00
4183;DHT22;2105;52.300;9.182;2022-09-09T04:14:15;16.10;1.00
4183;DHT22;2105;52.300;9.182;2022-09-09T04:16:41;16.10;1.00
4183;DHT22;2105;52.300;9.182;2022-09-09T04:19:10;16.10;1.00
4183;DHT22;2105;52.300;9.182;2022-09-09T04:21:38;16.10;1.00
4183;DHT22;2105;52.300;9.182;2022-09-09T04:24:06;16.10;1.00
4183;DHT22;2105;52.300;9.182;2022-09-09T04:26:33;16.10;1.00
4183;DHT22;2105;52.300;9.182;2022-09-09T04:29:01;16.10;1.00
4183;DHT22;2105;52.300;9.182;2022-09-09T04:31:28;16.10;1.00
4183;DHT22;2105;52.300;9.182;2022-09-09T04:33:55;16.20;1.00
4183;DHT22;2105;52.300;9.182;2022-09-09T04:36:22;16.20;1.00
4183;DHT22;2105;52.300;9.182;2022-09-09T04:38:48;16.20;1.00
4183;DHT22;2105;52.300;9.182;2022-09-09T04:41:15;16.20;1.00
4183;DHT22;2105;52.300;9.182;2022-09-09T04:43:43;16.20;1.00
4183;DHT22;2105;52.300;9.182;2022-09-09T04:46:11;16.20;1.00
4183;DHT22;2105;52.300;9.182;2022-09-09T04:48:37;16.20;1.00
4183;DHT22;2105;52.300;9.182;2022-09-09T04:51:05;16.20;1.00
4183;DHT22;2105;52.300;9.182;2022-09-09T04:53:33;16.10;1.00
4183;DHT22;2105;52.300;9.182;2022-09-09T04:56:05;16.20;1.00
4183;DHT22;2105;52.300;9.182;2022-09-09T04:58:33;16.20;1.00
4183;DHT22;2105;52.300;9.182;2022-09-09T05:01:05;16.20;1.00
4183;DHT22;2105;52.300;9.182;2022-09-09T05:03:34;16.20;1.00
4183;DHT22;2105;52.300;9.182;2022-09-09T05:06:05;16.20;1.00
4183;DHT22;2105;52.300;9.182;2022-09-09T05:08:32;16.20;1.00
4183;DHT22;2105;52.300;9.182;2022-09-09T05:10:59;16.20;1.00
4183;DHT22;2105;52.300;9.182;2022-09-09T05:13:25;16.20;1.00
4183;DHT22;2105;52.300;9.182;2022-09-09T05:15:53;16.20;1.00
4183;DHT22;2105;52.300;9.182;2022-09-09T05:18:19;16.10;1.00
4183;DHT22;2105;52.300;9.182;2022-09-09T05:20:49;16.10;1.00
4183;DHT22;2105;52.300;9.182;2022-09-09T05:23:16;16.20;1.00
4183;DHT22;2105;52.300;9.182;2022-09-09T05:25:43;16.20;1.00
4183;DHT22;2105;52.300;9.182;2022-09-09T05:28:12;16.20;1.00
4183;DHT22;2105;52.300;9.182;2022-09-09T05:30:38;16.20;1.00
4183;DHT22;2105;52.300;9.182;2022-09-09T05:33:05;16.20;1.00
4183;DHT22;2105;52.300;9.182;2022-09-09T05:35:32;16.20;1.00
4183;DHT22;2105;52.300;9.182;2022-09-09T05:38:01;16.20;1.00
4183;DHT22;2105;52.300;9.182;2022-09-09T05:40:27;16.20;1.00
4183;DHT22;2105;52.300;9.182;2022-09-09T05:42:54;16.10;1.00
4183;DHT22;2105;52.300;9.182;2022-09-09T05:45:21;16.10;1.00
4183;DHT22;2105;52.300;9.182;2022-09-09T05:47:51;16.20;1.00
4183;DHT22;2105;52.300;9.182;2022-09-09T05:50:19;16.20;1.00
4183;DHT22;2105;52.300;9.182;2022-09-09T05:52:46;16.30;1.00
4183;DHT22;2105;52.300;9.182;2022-09-09T05:55:15;16.30;1.00
4183;DHT22;2105;52.300;9.182;2022-09-09T05:57:48;16.30;1.00
4183;DHT22;2105;52.300;9.182;2022-09-09T06:00:15;16.20;59.30
4183;DHT22;2105;52.300;9.182;2022-09-09T06:02:41;16.10;52.20
4183;DHT22;2105;52.300;9.182;2022-09-09T06:05:09;16.10;99.90
4183;DHT22;2105;52.300;9.182;2022-09-09T06:07:36;16.00;99.90
4183;DHT22;2105;52.300;9.182;2022-09-09T06:10:03;15.90;99.90
4183;DHT22;2105;52.300;9.182;2022-09-09T06:12:32;15.90;99.90
4183;DHT22;2105;52.300;9.182;2022-09-09T06:14:58;15.80;99.90
4183;DHT22;2105;52.300;9.182;2022-09-09T06:17:25;15.80;99.90
4183;DHT22;2105;52.300;9.182;2022-09-09T06:19:52;15.80;99.90
4183;DHT22;2105;52.300;9.182;2022-09-09T06:22:19;15.80;99.90
4183;DHT22;2105;52.300;9.182;2022-09-09T06:24:46;15.80;99.90
4183;DHT22;2105;52.300;9.182;2022-09-09T06:27:12;15.90;99.90
4183;DHT22;2105;52.300;9.182;2022-09-09T06:29:43;15.90;99.90
4183;DHT22;2105;52.300;9.182;2022-09-09T06:32:10;15.90;99.90
4183;DHT22;2105;52.300;9.182;2022-09-09T06:34:36;15.90;99.90
4183;DHT22;2105;52.300;9.182;2022-09-09T06:37:03;16.00;99.90
4183;DHT22;2105;52.300;9.182;2022-09-09T06:39:31;16.10;99.90
4183;DHT22;2105;52.300;9.182;2022-09-09T06:41:58;16.20;99.90
4183;DHT22;2105;52.300;9.182;2022-09-09T06:44:25;16.20;99.90
4183;DHT22;2105;52.300;9.182;2022-09-09T06:46:53;16.30;99.90
4183;DHT22;2105;52.300;9.182;2022-09-09T06:49:20;16.30;99.90
4183;DHT22;2105;52.300;9.182;2022-09-09T06:51:47;16.50;99.90
4183;DHT22;2105;52.300;9.182;2022-09-09T06:54:14;16.50;99.90
4183;DHT22;2105;52.300;9.182;2022-09-09T06:56:42;16.50;1.00
4183;DHT22;2105;52.300;9.182;2022-09-09T06:59:09;16.60;11.10
4183;DHT22;2105;52.300;9.182;2022-09-09T07:01:38;16.60;1.00
4183;DHT22;2105;52.300;9.182;2022-09-09T07:04:07;16.60;1.00
4183;DHT22;2105;52.300;9.182;2022-09-09T07:06:38;16.60;1.00
4183;DHT22;2105;52.300;9.182;2022-09-09T07:09:07;16.80;1.00
4183;DHT22;2105;52.300;9.182;2022-09-09T07:11:38;17.00;1.80
4183;DHT22;2105;52.300;9.182;2022-09-09T07:14:05;17.10;1.00
4183;DHT22;2105;52.300;9.182;2022-09-09T07:16:32;17.40;1.00
4183;DHT22;2105;52.300;9.182;2022-09-09T07:19:00;17.60;1.00
4183;DHT22;2105;52.300;9.182;2022-09-09T07:21:30;17.60;1.00
4183;DHT22;2105;52.300;9.182;2022-09-09T07:23:57;17.70;1.00
4183;DHT22;2105;52.300;9.182;2022-09-09T07:26:26;17.60;99.90
4183;DHT22;2105;52.300;9.182;2022-09-09T07:28:54;17.70;1.00
4183;DHT22;2105;52.300;9.182;2022-09-09T07:31:22;17.70;1.00
4183;DHT22;2105;52.300;9.182;2022-09-09T07:33:50;17.70;1.00
4183;DHT22;2105;52.300;9.182;2022-09-09T07:36:19;17.70;1.00
4183;DHT22;2105;52.300;9.182;2022-09-09T07:38:50;17.60;1.00
4183;DHT22;2105;52.300;9.182;2022-09-09T07:41:20;17.60;99.90
4183;DHT22;2105;52.300;9.182;2022-09-09T07:43:48;17.60;99.90
4183;DHT22;2105;52.300;9.182;2022-09-09T07:46:17;17.60;1.00
4183;DHT22;2105;52.300;9.182;2022-09-09T07:48:45;17.60;1.00
4183;DHT22;2105;52.300;9.182;2022-09-09T07:51:14;17.60;99.90
4183;DHT22;2105;52.300;9.182;2022-09-09T07:53:42;17.60;1.00
4183;DHT22;2105;52.300;9.182;2022-09-09T07:56:12;17.50;1.00
4183;DHT22;2105;52.300;9.182;2022-09-09T07:58:40;17.50;1.00
4183;DHT22;2105;52.300;9.182;2022-09-09T08:01:08;17.50;1.00
4183;DHT22;2105;52.300;9.182;2022-09-09T08:03:36;17.50;1.00
4183;DHT22;2105;52.300;9.182;2022-09-09T08:06:03;17.50;1.00
4183;DHT22;2105;52.300;9.182;2022-09-09T08:08:31;17.60;1.00
4183;DHT22;2105;52.300;9.182;2022-09-09T08:11:04;17.60;1.00
4183;DHT22;2105;52.300;9.182;2022-09-09T08:13:34;17.60;99.90
4183;DHT22;2105;52.300;9.182;2022-09-09T08:16:06;17.70;99.90
4183;DHT22;2105;52.300;9.182;2022-09-09T08:18:34;17.80;99.90
4183;DHT22;2105;52.300;9.182;2022-09-09T08:21:09;17.90;99.90
4183;DHT22;2105;52.300;9.182;2022-09-09T08:23:37;17.90;99.90
4183;DHT22;2105;52.300;9.182;2022-09-09T08:26:06;18.10;99.90
4183;DHT22;2105;52.300;9.182;2022-09-09T08:28:36;18.20;99.90
4183;DHT22;2105;52.300;9.182;2022-09-09T08:31:06;18.20;1.00
4183;DHT22;2105;52.300;9.182;2022-09-09T08:33:33;18.30;1.00
4183;DHT22;2105;52.300;9.182;2022-09-09T08:36:00;18.10;1.00
4183;DHT22;2105;52.300;9.182;2022-09-09T08:38:26;18.30;84.20
4183;DHT22;2105;52.300;9.182;2022-09-09T08:40:58;18.30;1.00
4183;DHT22;2105;52.300;9.182;2022-09-09T08:43:30;18.30;1.00
4183;DHT22;2105;52.300;9.182;2022-09-09T08:46:02;18.30;1.00
4183;DHT22;2105;52.300;9.182;2022-09-09T08:48:44;18.30;1.00
4183;DHT22;2105;52.300;9.182;2022-09-09T08:51:13;18.40;1.00
4183;DHT22;2105;52.300;9.182;2022-09-09T08:53:43;18.30;1.00
4183;DHT22;2105;52.300;9.182;2022-09-09T08:56:14;18.40;1.00
4183;DHT22;2105;52.300;9.182;2022-09-09T08:58:46;18.40;1.00
4183;DHT22;2105;52.300;9.182;2022-09-09T09:01:29;18.40;1.00
4183;DHT22;2105;52.300;9.182;2022-09-09T09:04:06;18.30;1.00
4183;DHT22;2105;52.300;9.182;2022-09-09T09:06:45;18.30;1.00
4183;DHT22;2105;52.300;9.182;2022-09-09T09:09:21;18.30;1.00
4183;DHT22;2105;52.300;9.182;2022-09-09T09:11:51;18.40;99.90
4183;DHT22;2105;52.300;9.182;2022-09-09T09:14:22;18.40;1.00
4183;DHT22;2105;52.300;9.182;2022-09-09T09:16:53;18.50;99.90
4183;DHT22;2105;52.300;9.182;2022-09-09T09:19:20;18.60;99.90
4183;DHT22;2105;52.300;9.182;2022-09-09T09:21:52;18.80;30.20
4183;DHT22;2105;52.300;9.182;2022-09-09T09:24:23;18.80;99.90
4183;DHT22;2105;52.300;9.182;2022-09-09T09:26:52;18.80;99.90
4183;DHT22;2105;52.300;9.182;2022-09-09T09:29:19;18.80;1.00
4183;DHT22;2105;52.300;9.182;2022-09-09T09:31:50;18.80;99.90
4183;DHT22;2105;52.300;9.182;2022-09-09T09:34:17;19.10;99.90
4183;DHT22;2105;52.300;9.182;2022-09-09T09:36:52;19.30;1.00
4183;DHT22;2105;52.300;9.182;2022-09-09T09:39:24;19.60;99.90
4183;DHT22;2105;52.300;9.182;2022-09-09T09:41:51;19.60;1.00
4183;DHT22;2105;52.300;9.182;2022-09-09T09:44:23;20.00;1.00
4183;DHT22;2105;52.300;9.182;2022-09-09T09:46:52;20.30;1.00
4183;DHT22;2105;52.300;9.182;2022-09-09T09:49:19;20.40;1.00
4183;DHT22;2105;52.300;9.182;2022-09-09T09:51:46;20.30;99.90
4183;DHT22;2105;52.300;9.182;2022-09-09T09:54:22;20.10;99.90
4183;DHT22;2105;52.300;9.182;2022-09-09T09:56:53;20.10;1.00
4183;DHT22;2105;52.300;9.182;2022-09-09T09:59:22;20.10;99.90
4183;DHT22;2105;52.300;9.182;2022-09-09T10:01:48;20.30;99.90
4183;DHT22;2105;52.300;9.182;2022-09-09T10:04:19;20.40;1.00
4183;DHT22;2105;52.300;9.182;2022-09-09T10:06:49;20.70;99.90
4183;DHT22;2105;52.300;9.182;2022-09-09T10:09:21;20.80;99.90
4183;DHT22;2105;52.300;9.182;2022-09-09T10:11:55;21.10;99.90
4183;DHT22;2105;52.300;9.182;2022-09-09T10:14:29;21.30;69.50
4183;DHT22;2105;52.300;9.182;2022-09-09T10:17:11;21.40;99.90
4183;DHT22;2105;52.300;9.182;2022-09-09T10:19:44;21.10;1.00
4183;DHT22;2105;52.300;9.182;2022-09-09T10:22:25;21.10;99.90
4183;DHT22;2105;52.300;9.182;2022-09-09T10:25:14;21.00;1.00
4183;DHT22;2105;52.300;9.182;2022-09-09T10:27:53;21.00;93.10
4183;DHT22;2105;52.300;9.182;2022-09-09T10:30:23;21.30;1.00
4183;DHT22;2105;52.300;9.182;2022-09-09T10:33:02;21.30;1.00
4183;DHT22;2105;52.300;9.182;2022-09-09T10:35:35;21.30;99.90
4183;DHT22;2105;52.300;9.182;2022-09-09T10:38:13;21.10;99.90
4183;DHT22;2105;52.300;9.182;2022-09-09T10:40:59;21.30;1.00
4183;DHT22;2105;52.300;9.182;2022-09-09T10:46:36;22.60;99.90
4183;DHT22;2105;52.300;9.182;2022-09-09T10:49:16;22.70;86.50
4183;DHT22;2105;52.300;9.182;2022-09-09T10:51:51;22.20;99.90
4183;DHT22;2105;52.300;9.182;2022-09-09T10:54:33;22.00;99.90
4183;DHT22;2105;52.300;9.182;2022-09-09T10:57:07;22.20;99.90
4183;DHT22;2105;52.300;9.182;2022-09-09T10:59:38;21.90;99.90
4183;DHT22;2105;52.300;9.182;2022-09-09T11:02:14;21.70;99.90
4183;DHT22;2105;52.300;9.182;2022-09-09T11:04:49;21.40;99.90
4183;DHT22;2105;52.300;9.182;2022-09-09T11:07:25;21.30;99.90
4183;DHT22;2105;52.300;9.182;2022-09-09T11:09:58;21.20;99.90
4183;DHT22;2105;52.300;9.182;2022-09-09T11:12:27;21.10;99.90
4183;DHT22;2105;52.300;9.182;2022-09-09T11:14:59;20.60;99.90
4183;DHT22;2105;52.300;9.182;2022-09-09T11:17:31;20.40;1.00
4183;DHT22;2105;52.300;9.182;2022-09-09T11:20:00;20.20;1.00
4183;DHT22;2105;52.300;9.182;2022-09-09T11:22:30;20.10;99.90
4183;DHT22;2105;52.300;9.182;2022-09-09T11:25:03;19.70;1.00
4183;DHT22;2105;52.300;9.182;2022-09-09T11:27:37;19.50;1.00
4183;DHT22;2105;52.300;9.182;2022-09-09T11:30:18;19.40;1.00
4183;DHT22;2105;52.300;9.182;2022-09-09T11:35:54;19.70;1.00
4183;DHT22;2105;52.300;9.182;2022-09-09T11:38:28;19.80;1.00
4183;DHT22;2105;52.300;9.182;2022-09-09T11:40:57;20.00;1.00
4183;DHT22;2105;52.300;9.182;2022-09-09T11:43:29;20.20;99.90
4183;DHT22;2105;52.300;9.182;2022-09-09T11:45:59;20.40;99.90
4183;DHT22;2105;52.300;9.182;2022-09-09T11:48:34;20.60;99.90
4183;DHT22;2105;52.300;9.182;2022-09-09T11:51:04;20.50;1.00
4183;DHT22;2105;52.300;9.182;2022-09-09T11:53:52;20.90;99.90
4183;DHT22;2105;52.300;9.182;2022-09-09T11:56:27;21.20;99.90
4183;DHT22;2105;52.300;9.182;2022-09-09T11:59:01;21.50;99.90
4183;DHT22;2105;52.300;9.182;2022-09-09T12:01:37;21.50;99.90
4183;DHT22;2105;52.300;9.182;2022-09-09T12:06:57;21.70;99.90
4183;DHT22;2105;52.300;9.182;2022-09-09T12:09:33;21.80;99.90
4183;DHT22;2105;52.300;9.182;2022-09-09T12:12:20;21.40;99.90
4183;DHT22;2105;52.300;9.182;2022-09-09T12:17:42;21.60;99.90
4183;DHT22;2105;52.300;9.182;2022-09-09T12:20:13;21.90;99.90
4183;DHT22;2105;52.300;9.182;2022-09-09T12:22:51;22.20;99.90
4183;DHT22;2105;52.300;9.182;2022-09-09T12:25:33;22.10;99.90
4183;DHT22;2105;52.300;9.182;2022-09-09T12:28:06;21.80;99.90
4183;DHT22;2105;52.300;9.182;2022-09-09T12:30:40;21.90;99.90
4183;DHT22;2105;52.300;9.182;2022-09-09T12:33:11;22.20;99.90
4183;DHT22;2105;52.300;9.182;2022-09-09T12:35:38;22.20;99.90
4183;DHT22;2105;52.300;9.182;2022-09-09T12:38:10;22.50;99.90
4183;DHT22;2105;52.300;9.182;2022-09-09T12:40:40;22.30;99.90
4183;DHT22;2105;52.300;9.182;2022-09-09T12:43:17;22.50;99.90
4183;DHT22;2105;52.300;9.182;2022-09-09T12:45:45;22.60;87.80
4183;DHT22;2105;52.300;9.182;2022-09-09T12:48:12;22.30;36.70
4183;DHT22;2105;52.300;9.182;2022-09-09T12:50:45;21.60;99.90
4183;DHT22;2105;52.300;9.182;2022-09-09T12:53:17;21.20;99.90
4183;DHT22;2105;52.300;9.182;2022-09-09T12:55:51;21.20;99.90
4183;DHT22;2105;52.300;9.182;2022-09-09T12:58:19;21.40;99.90
4183;DHT22;2105;52.300;9.182;2022-09-09T13:00:49;21.90;99.90
4183;DHT22;2105;52.300;9.182;2022-09-09T13:03:19;22.80;45.80
4183;DHT22;2105;52.300;9.182;2022-09-09T13:05:47;23.60;1.00
4183;DHT22;2105;52.300;9.182;2022-09-09T13:08:14;23.40;1.00
4183;DHT22;2105;52.300;9.182;2022-09-09T13:10:47;23.20;1.00
4183;DHT22;2105;52.300;9.182;2022-09-09T13:13:18;22.90;1.00
4183;DHT22;2105;52.300;9.182;2022-09-09T13:15:49;22.50;1.00
4183;DHT22;2105;52.300;9.182;2022-09-09T13:18:20;21.90;24.00
4183;DHT22;2105;52.300;9.182;2022-09-09T13:20:48;21.60;99.90
4183;DHT22;2105;52.300;9.182;2022-09-09T13:23:15;21.50;99.90
4183;DHT22;2105;52.300;9.182;2022-09-09T13:25:53;21.60;99.90
4183;DHT22;2105;52.300;9.182;2022-09-09T13:28:23;22.00;99.90
4183;DHT22;2105;52.300;9.182;2022-09-09T13:30:56;22.80;1.00
4183;DHT22;2105;52.300;9.182;2022-09-09T13:33:30;23.00;1.00
4183;DHT22;2105;52.300;9.182;2022-09-09T13:35:59;23.00;1.00
4183;DHT22;2105;52.300;9.182;2022-09-09T13:38:28;23.20;1.00
4183;DHT22;2105;52.300;9.182;2022-09-09T13:40:57;23.20;1.00
4183;DHT22;2105;52.300;9.182;2022-09-09T13:43:29;23.30;1.00
4183;DHT22;2105;52.300;9.182;2022-09-09T13:45:58;22.80;1.00
4183;DHT22;2105;52.300;9.182;2022-09-09T13:48:25;22.50;1.00
4183;DHT22;2105;52.300;9.182;2022-09-09T13:51:00;22.00;1.00
4183;DHT22;2105;52.300;9.182;2022-09-09T13:53:28;21.80;1.00
4183;DHT22;2105;52.300;9.182;2022-09-09T13:55:56;21.70;1.00
4183;DHT22;2105;52.300;9.182;2022-09-09T13:58:23;21.60;1.00
4183;DHT22;2105;52.300;9.182;2022-09-09T14:00:52;21.50;1.00
4183;DHT22;2105;52.300;9.182;2022-09-09T14:03:20;21.70;1.00
4183;DHT22;2105;52.300;9.182;2022-09-09T14:05:47;21.90;1.00
4183;DHT22;2105;52.300;9.182;2022-09-09T14:08:24;21.80;1.00
4183;DHT22;2105;52.300;9.182;2022-09-09T14:10:51;21.60;1.00
4183;DHT22;2105;52.300;9.182;2022-09-09T14:13:21;21.60;1.00
4183;DHT22;2105;52.300;9.182;2022-09-09T14:15:48;21.60;1.00
4183;DHT22;2105;52.300;9.182;2022-09-09T14:18:17;21.50;1.00
4183;DHT22;2105;52.300;9.182;2022-09-09T14:20:44;21.30;1.00
4183;DHT22;2105;52.300;9.182;2022-09-09T14:23:11;21.40;5.90
4183;DHT22;2105;52.300;9.182;2022-09-09T14:25:40;21.40;29.60
4183;DHT22;2105;52.300;9.182;2022-09-09T14:28:09;21.40;92.60
4183;DHT22;2105;52.300;9.182;2022-09-09T14:30:37;21.40;99.90
4183;DHT22;2105;52.300;9.182;2022-09-09T14:33:04;21.30;99.90
4183;DHT22;2105;52.300;9.182;2022-09-09T14:35:32;21.30;99.90
4183;DHT22;2105;52.300;9.182;2022-09-09T14:37:59;21.30;99.90
4183;DHT22;2105;52.300;9.182;2022-09-09T14:40:26;21.30;99.90
4183;DHT22;2105;52.300;9.182;2022-09-09T14:42:53;21.30;99.90
4183;DHT22;2105;52.300;9.182;2022-09-09T14:45:21;21.30;99.90
4183;DHT22;2105;52.300;9.182;2022-09-09T14:47:50;21.20;99.90
4183;DHT22;2105;52.300;9.182;2022-09-09T14:50:17;21.10;99.90
4183;DHT22;2105;52.300;9.182;2022-09-09T14:52:45;21.10;99.90
4183;DHT22;2105;52.300;9.182;2022-09-09T14:55:12;21.20;99.90
4183;DHT22;2105;52.300;9.182;2022-09-09T14:57:39;21.30;99.90
4183;DHT22;2105;52.300;9.182;2022-09-09T15:00:07;21.60;99.90
4183;DHT22;2105;52.300;9.182;2022-09-09T15:02:34;21.70;99.90
4183;DHT22;2105;52.300;9.182;2022-09-09T15:05:01;21.70;99.90
4183;DHT22;2105;52.300;9.182;2022-09-09T15:07:27;21.70;99.90
4183;DHT22;2105;52.300;9.182;2022-09-09T15:09:55;21.60;52.40
4183;DHT22;2105;52.300;9.182;2022-09-09T15:12:22;21.60;69.10
4183;DHT22;2105;52.300;9.182;2022-09-09T15:14:50;21.60;94.70
4183;DHT22;2105;52.300;9.182;2022-09-09T15:17:17;21.40;77.10
4183;DHT22;2105;52.300;9.182;2022-09-09T15:19:44;21.40;45.40
4183;DHT22;2105;52.300;9.182;2022-09-09T15:22:11;21.50;19.40
4183;DHT22;2105;52.300;9.182;2022-09-09T15:24:37;21.70;1.00
4183;DHT22;2105;52.300;9.182;2022-09-09T15:27:05;21.90;1.00
4183;DHT22;2105;52.300;9.182;2022-09-09T15:29:32;22.00;1.00
4183;DHT22;2105;52.300;9.182;2022-09-09T15:31:59;22.20;1.00
4183;DHT22;2105;52.300;9.182;2022-09-09T15:34:25;22.20;1.00
4183;DHT22;2105;52.300;9.182;2022-09-09T15:36:52;22.10;1.00
4183;DHT22;2105;52.300;9.182;2022-09-09T15:39:20;22.00;1.00
4183;DHT22;2105;52.300;9.182;2022-09-09T15:41:48;21.90;1.00
4183;DHT22;2105;52.300;9.182;2022-09-09T15:44:16;21.80;1.00
4183;DHT22;2105;52.300;9.182;2022-09-09T15:46:45;22.00;1.00
4183;DHT22;2105;52.300;9.182;2022-09-09T15:49:13;22.10;1.00
4183;DHT22;2105;52.300;9.182;2022-09-09T15:51:43;22.00;1.00
4183;DHT22;2105;52.300;9.182;2022-09-09T15:54:11;22.00;1.00
4183;DHT22;2105;52.300;9.182;2022-09-09T15:56:38;22.00;1.00
4183;DHT22;2105;52.300;9.182;2022-09-09T15:59:05;22.00;1.00
4183;DHT22;2105;52.300;9.182;2022-09-09T16:01:33;21.80;1.00
4183;DHT22;2105;52.300;9.182;2022-09-09T16:04:00;21.60;1.00
4183;DHT22;2105;52.300;9.182;2022-09-09T16:06:28;21.60;1.00
4183;DHT22;2105;52.300;9.182;2022-09-09T16:08:56;21.50;1.00
4183;DHT22;2105;52.300;9.182;2022-09-09T16:11:25;21.50;1.00
4183;DHT22;2105;52.300;9.182;2022-09-09T16:13:54;21.50;1.00
4183;DHT22;2105;52.300;9.182;2022-09-09T16:16:23;21.60;1.00
4183;DHT22;2105;52.300;9.182;2022-09-09T16:18:53;21.50;1.00
4183;DHT22;2105;52.300;9.182;2022-09-09T16:21:21;21.50;1.00
4183;DHT22;2105;52.300;9.182;2022-09-09T16:23:50;21.50;1.00
4183;DHT22;2105;52.300;9.182;2022-09-09T16:26:18;21.40;1.00
4183;DHT22;2105;52.300;9.182;2022-09-09T16:28:45;21.40;1.00
4183;DHT22;2105;52.300;9.182;2022-09-09T16:31:15;21.50;1.00
4183;DHT22;2105;52.300;9.182;2022-09-09T16:33:42;21.60;1.00
4183;DHT22;2105;52.300;9.182;2022-09-09T16:36:12;21.70;1.00
4183;DHT22;2105;52.300;9.182;2022-09-09T16:38:39;21.80;1.00
4183;DHT22;2105;52.300;9.182;2022-09-09T16:41:06;21.90;1.00